Time,TemperatureF,DewpointF,PressureIn,WindDirection,WindDirectionDegrees,WindSpeedMPH,WindSpeedGustMPH,Humidity,HourlyPrecipIn,Conditions,Clouds,dailyrainin,SoftwareType,DateUTC
2013-04-03 00:03:00,32.3,14.8,30.32,North,5,0.0,22.0,48,0.00,,,0.00,Wunderground v.1.15,2013-04-03 05:03:00,
2013-04-03 00:08:00,32.2,15.2,30.32,North,5,0.0,22.0,49,0.00,,,0.00,Wunderground v.1.15,2013-04-03 05:08:00,
2013-04-03 00:13:00,32.2,15.2,30.32,North,5,0.0,22.0,49,0.00,,,0.00,Wunderground v.1.15,2013-04-03 05:13:00,
2013-04-03 00:18:00,32.1,15.5,30.32,North,5,0.0,22.0,50,0.00,,,0.00,Wunderground v.1.15,2013-04-03 05:18:00,
2013-04-03 00:23:00,32.1,15.1,30.32,North,5,0.0,22.0,49,0.00,,,0.00,Wunderground v.1.15,2013-04-03 05:23:00,
2013-04-03 00:28:00,31.9,14.9,30.32,North,5,0.0,22.0,49,0.00,,,0.00,Wunderground v.1.15,2013-04-03 05:28:00,
2013-04-03 00:33:00,31.8,15.3,30.32,North,5,0.0,22.0,50,0.00,,,0.00,Wunderground v.1.15,2013-04-03 05:33:00,
2013-04-03 00:39:00,31.7,15.2,30.32,North,5,0.0,22.0,50,0.00,,,0.00,Wunderground v.1.15,2013-04-03 05:39:00,
2013-04-03 00:44:00,31.7,15.2,30.32,North,5,0.0,22.0,50,0.00,,,0.00,Wunderground v.1.15,2013-04-03 05:44:00,
2013-04-03 00:49:00,31.7,14.7,30.32,North,5,0.0,22.0,49,0.00,,,0.00,Wunderground v.1.15,2013-04-03 05:49:00,
2013-04-03 00:55:00,31.6,15.1,30.32,North,5,0.0,22.0,50,0.00,,,0.00,Wunderground v.1.15,2013-04-03 05:55:00,
2013-04-03 01:00:00,31.6,15.1,30.33,North,5,0.0,22.0,50,0.00,,,0.00,Wunderground v.1.15,2013-04-03 06:00:00,
2013-04-03 01:05:00,31.4,14.9,30.33,North,5,0.0,22.0,50,0.00,,,0.00,Wunderground v.1.15,2013-04-03 06:05:00,
2013-04-03 01:10:00,31.2,14.7,30.33,North,5,0.0,22.0,50,0.00,,,0.00,Wunderground v.1.15,2013-04-03 06:10:00,
2013-04-03 01:15:00,31.2,14.7,30.33,North,5,0.0,22.0,50,0.00,,,0.00,Wunderground v.1.15,2013-04-03 06:15:00,
2013-04-03 01:20:00,31.1,14.6,30.33,North,5,0.0,22.0,50,0.00,,,0.00,Wunderground v.1.15,2013-04-03 06:20:00,
2013-04-03 01:26:00,31.1,14.1,30.33,North,5,0.0,22.0,49,0.00,,,0.00,Wunderground v.1.15,2013-04-03 06:26:00,
2013-04-03 01:31:00,31.2,14.2,30.33,North,5,0.0,22.0,49,0.00,,,0.00,Wunderground v.1.15,2013-04-03 06:31:00,
2013-04-03 01:36:00,31.1,14.6,30.33,North,5,0.0,22.0,50,0.00,,,0.00,Wunderground v.1.15,2013-04-03 06:36:00,
2013-04-03 01:42:00,31.1,14.6,30.33,North,5,0.0,22.0,50,0.00,,,0.00,Wunderground v.1.15,2013-04-03 06:42:00,
2013-04-03 01:48:00,30.9,14.4,30.33,North,5,0.0,22.0,50,0.00,,,0.00,Wunderground v.1.15,2013-04-03 06:48:00,
2013-04-03 01:53:00,30.8,14.3,30.33,North,5,0.0,22.0,50,0.00,,,0.00,Wunderground v.1.15,2013-04-03 06:53:00,
2013-04-03 01:59:00,30.8,14.3,30.33,North,5,0.0,22.0,50,0.00,,,0.00,Wunderground v.1.15,2013-04-03 06:59:00,
2013-04-03 02:04:00,30.7,14.7,30.33,North,5,0.0,22.0,51,0.00,,,0.00,Wunderground v.1.15,2013-04-03 07:04:00,
2013-04-03 02:09:00,30.7,14.2,30.33,North,5,0.0,22.0,50,0.00,,,0.00,Wunderground v.1.15,2013-04-03 07:09:00,
2013-04-03 02:14:00,30.7,14.2,30.33,North,5,0.0,22.0,50,0.00,,,0.00,Wunderground v.1.15,2013-04-03 07:14:00,
2013-04-03 02:19:00,30.8,14.3,30.33,North,5,0.0,22.0,50,0.00,,,0.00,Wunderground v.1.15,2013-04-03 07:19:00,
2013-04-03 02:24:00,31.0,14.5,30.33,North,5,0.0,22.0,50,0.00,,,0.00,Wunderground v.1.15,2013-04-03 07:24:00,
2013-04-03 02:30:00,30.9,14.4,30.33,North,5,0.0,22.0,50,0.00,,,0.00,Wunderground v.1.15,2013-04-03 07:30:00,
2013-04-03 02:35:00,30.6,14.1,30.33,North,5,0.0,22.0,50,0.00,,,0.00,Wunderground v.1.15,2013-04-03 07:35:00,
2013-04-03 02:40:00,30.5,14.0,30.33,North,5,0.0,22.0,50,0.00,,,0.00,Wunderground v.1.15,2013-04-03 07:40:00,
2013-04-03 02:45:00,30.4,14.4,30.34,North,5,0.0,22.0,51,0.00,,,0.00,Wunderground v.1.15,2013-04-03 07:45:00,
2013-04-03 02:50:00,30.3,14.3,30.34,North,5,0.0,22.0,51,0.00,,,0.00,Wunderground v.1.15,2013-04-03 07:50:00,
2013-04-03 02:56:00,30.0,14.0,30.34,North,5,0.0,22.0,51,0.00,,,0.00,Wunderground v.1.15,2013-04-03 07:56:00,
2013-04-03 03:01:00,29.7,14.6,30.34,North,5,0.0,22.0,53,0.00,,,0.00,Wunderground v.1.15,2013-04-03 08:01:00,
2013-04-03 03:06:00,29.1,15.7,30.34,North,5,0.0,22.0,57,0.00,,,0.00,Wunderground v.1.15,2013-04-03 08:06:00,
2013-04-03 03:11:00,28.6,16.5,30.34,North,5,0.0,22.0,60,0.00,,,0.00,Wunderground v.1.15,2013-04-03 08:11:00,
2013-04-03 03:17:00,27.6,17.0,30.34,North,5,0.0,22.0,64,0.00,,,0.00,Wunderground v.1.15,2013-04-03 08:17:00,
2013-04-03 03:22:00,26.9,17.7,30.34,North,5,0.0,22.0,68,0.00,,,0.00,Wunderground v.1.15,2013-04-03 08:22:00,
2013-04-03 03:27:00,26.5,17.7,30.34,North,5,0.0,22.0,69,0.00,,,0.00,Wunderground v.1.15,2013-04-03 08:27:00,
2013-04-03 03:33:00,26.8,16.6,30.34,North,5,0.0,22.0,65,0.00,,,0.00,Wunderground v.1.15,2013-04-03 08:33:00,
2013-04-03 03:38:00,27.0,16.4,30.35,North,5,0.0,22.0,64,0.00,,,0.00,Wunderground v.1.15,2013-04-03 08:38:00,
2013-04-03 03:43:00,27.0,16.4,30.35,North,5,0.0,22.0,64,0.00,,,0.00,Wunderground v.1.15,2013-04-03 08:43:00,
2013-04-03 03:48:00,27.4,15.7,30.34,North,5,0.0,22.0,61,0.00,,,0.00,Wunderground v.1.15,2013-04-03 08:48:00,
2013-04-03 03:54:00,27.0,16.1,30.35,North,5,0.0,22.0,63,0.00,,,0.00,Wunderground v.1.15,2013-04-03 08:54:00,
2013-04-03 03:59:00,27.0,16.1,30.35,North,5,0.0,22.0,63,0.00,,,0.00,Wunderground v.1.15,2013-04-03 08:59:00,
2013-04-03 04:04:00,26.6,15.7,30.35,North,5,0.0,22.0,63,0.00,,,0.00,Wunderground v.1.15,2013-04-03 09:04:00,
2013-04-03 04:10:00,26.2,16.0,30.35,North,5,0.0,22.0,65,0.00,,,0.00,Wunderground v.1.15,2013-04-03 09:10:00,
2013-04-03 04:15:00,26.2,16.0,30.35,North,5,0.0,22.0,65,0.00,,,0.00,Wunderground v.1.15,2013-04-03 09:15:00,
2013-04-03 04:20:00,26.0,16.5,30.35,North,5,0.0,22.0,67,0.00,,,0.00,Wunderground v.1.15,2013-04-03 09:20:00,
2013-04-03 04:26:00,26.0,15.5,30.35,North,5,0.0,22.0,64,0.00,,,0.00,Wunderground v.1.15,2013-04-03 09:26:00,
2013-04-03 04:31:00,26.3,15.4,30.36,North,5,0.0,22.0,63,0.00,,,0.00,Wunderground v.1.15,2013-04-03 09:31:00,
2013-04-03 04:36:00,26.8,15.1,30.36,North,5,0.0,22.0,61,0.00,,,0.00,Wunderground v.1.15,2013-04-03 09:36:00,
2013-04-03 04:41:00,27.1,15.4,30.36,North,5,0.0,22.0,61,0.00,,,0.00,Wunderground v.1.15,2013-04-03 09:41:00,
2013-04-03 04:46:00,27.1,15.4,30.36,North,5,0.0,22.0,61,0.00,,,0.00,Wunderground v.1.15,2013-04-03 09:46:00,
2013-04-03 04:52:00,26.9,15.6,30.36,North,5,0.0,22.0,62,0.00,,,0.00,Wunderground v.1.15,2013-04-03 09:52:00,
2013-04-03 04:57:00,26.6,15.3,30.36,North,5,0.0,22.0,62,0.00,,,0.00,Wunderground v.1.15,2013-04-03 09:57:00,
2013-04-03 05:02:00,26.3,16.1,30.37,North,5,0.0,22.0,65,0.00,,,0.00,Wunderground v.1.15,2013-04-03 10:02:00,
2013-04-03 05:07:00,26.2,16.4,30.37,North,5,0.0,22.0,66,0.00,,,0.00,Wunderground v.1.15,2013-04-03 10:07:00,
2013-04-03 05:12:00,26.0,16.5,30.37,North,5,0.0,22.0,67,0.00,,,0.00,Wunderground v.1.15,2013-04-03 10:12:00,
2013-04-03 05:17:00,26.1,16.6,30.37,North,5,0.0,22.0,67,0.00,,,0.00,Wunderground v.1.15,2013-04-03 10:17:00,
2013-04-03 05:22:00,26.4,16.6,30.37,North,5,0.0,22.0,66,0.00,,,0.00,Wunderground v.1.15,2013-04-03 10:22:00,
2013-04-03 05:32:00,26.7,16.5,30.37,North,5,0.0,22.0,65,0.00,,,0.00,Wunderground v.1.15,2013-04-03 10:32:00,
2013-04-03 05:37:00,26.6,16.4,30.37,North,5,0.0,22.0,65,0.00,,,0.00,Wunderground v.1.15,2013-04-03 10:37:00,
2013-04-03 05:43:00,26.1,16.6,30.36,North,5,0.0,22.0,67,0.00,,,0.00,Wunderground v.1.15,2013-04-03 10:43:00,
2013-04-03 05:48:00,25.8,17.0,30.36,North,5,0.0,22.0,69,0.00,,,0.00,Wunderground v.1.15,2013-04-03 10:48:00,
2013-04-03 05:53:00,25.5,16.7,30.37,North,5,0.0,22.0,69,0.00,,,0.00,Wunderground v.1.15,2013-04-03 10:53:00,
2013-04-03 05:58:00,25.2,16.8,30.36,North,5,0.0,22.0,70,0.00,,,0.00,Wunderground v.1.15,2013-04-03 10:58:00,
2013-04-03 06:04:00,25.2,17.1,30.36,North,5,0.0,22.0,71,0.00,,,0.00,Wunderground v.1.15,2013-04-03 11:04:00,
2013-04-03 06:09:00,25.5,16.7,30.36,North,5,0.0,22.0,69,0.00,,,0.00,Wunderground v.1.15,2013-04-03 11:09:00,
2013-04-03 06:14:00,25.5,16.7,30.36,North,5,2.0,22.0,69,0.00,,,0.00,Wunderground v.1.15,2013-04-03 11:14:00,
2013-04-03 06:19:00,25.4,16.6,30.36,North,5,4.0,22.0,69,0.00,,,0.00,Wunderground v.1.15,2013-04-03 11:19:00,
2013-04-03 06:24:00,25.5,16.4,30.36,North,5,4.0,22.0,68,0.00,,,0.00,Wunderground v.1.15,2013-04-03 11:24:00,
2013-04-03 06:29:00,25.7,16.3,30.37,North,5,4.0,22.0,67,0.00,,,0.00,Wunderground v.1.15,2013-04-03 11:29:00,
2013-04-03 06:34:00,26.0,16.2,30.37,North,5,3.0,22.0,66,0.00,,,0.00,Wunderground v.1.15,2013-04-03 11:34:00,
2013-04-03 06:39:00,26.4,15.9,30.37,North,5,1.0,22.0,64,0.00,,,0.00,Wunderground v.1.15,2013-04-03 11:39:00,
2013-04-03 06:44:00,26.6,16.4,30.38,North,5,0.0,22.0,65,0.00,,,0.00,Wunderground v.1.15,2013-04-03 11:44:00,
2013-04-03 06:49:00,26.7,16.5,30.38,North,5,0.0,22.0,65,0.00,,,0.00,Wunderground v.1.15,2013-04-03 11:49:00,
2013-04-03 06:54:00,26.9,16.7,30.37,North,5,0.0,22.0,65,0.00,,,0.00,Wunderground v.1.15,2013-04-03 11:54:00,
2013-04-03 06:59:00,27.1,16.5,30.38,North,5,0.0,22.0,64,0.00,,,0.00,Wunderground v.1.15,2013-04-03 11:59:00,
2013-04-03 07:04:00,27.4,16.8,30.38,North,5,0.0,22.0,64,0.00,,,0.00,Wunderground v.1.15,2013-04-03 12:04:00,
2013-04-03 07:10:00,27.8,16.8,30.39,North,5,0.0,22.0,63,0.00,,,0.00,Wunderground v.1.15,2013-04-03 12:10:00,
2013-04-03 07:16:00,28.3,16.9,30.39,North,5,0.0,22.0,62,0.00,,,0.00,Wunderground v.1.15,2013-04-03 12:16:00,
2013-04-03 07:21:00,29.0,17.2,30.40,North,5,0.0,22.0,61,0.00,,,0.00,Wunderground v.1.15,2013-04-03 12:21:00,
2013-04-03 07:26:00,29.0,18.3,30.40,North,5,0.0,22.0,64,0.00,,,0.00,Wunderground v.1.15,2013-04-03 12:26:00,
2013-04-03 07:31:00,28.8,19.6,30.41,North,5,0.0,22.0,68,0.00,,,0.00,Wunderground v.1.15,2013-04-03 12:31:00,
2013-04-03 07:36:00,28.9,20.3,30.41,North,5,0.0,22.0,70,0.00,,,0.00,Wunderground v.1.15,2013-04-03 12:36:00,
2013-04-03 07:41:00,29.2,20.6,30.42,North,5,0.0,22.0,70,0.00,,,0.00,Wunderground v.1.15,2013-04-03 12:41:00,
2013-04-03 07:47:00,29.7,20.8,30.42,North,5,0.0,22.0,69,0.00,,,0.00,Wunderground v.1.15,2013-04-03 12:47:00,
2013-04-03 07:52:00,30.3,21.0,30.43,North,5,0.0,22.0,68,0.00,,,0.00,Wunderground v.1.15,2013-04-03 12:52:00,
2013-04-03 07:58:00,30.8,21.1,30.44,North,5,0.0,22.0,67,0.00,,,0.00,Wunderground v.1.15,2013-04-03 12:58:00,
2013-04-03 08:03:00,31.2,21.9,30.44,North,5,0.0,22.0,68,0.00,,,0.00,Wunderground v.1.15,2013-04-03 13:03:00,
2013-04-03 08:08:00,31.5,20.7,30.44,North,5,0.0,22.0,64,0.00,,,0.00,Wunderground v.1.15,2013-04-03 13:08:00,
2013-04-03 08:13:00,31.8,21.0,30.44,North,5,0.0,22.0,64,0.00,,,0.00,Wunderground v.1.15,2013-04-03 13:13:00,
2013-04-03 08:19:00,32.3,21.5,30.45,North,5,0.0,22.0,64,0.00,,,0.00,Wunderground v.1.15,2013-04-03 13:19:00,
2013-04-03 08:24:00,33.1,21.5,30.45,North,5,0.0,22.0,62,0.00,,,0.00,Wunderground v.1.15,2013-04-03 13:24:00,
2013-04-03 08:29:00,33.6,21.6,30.44,North,5,0.0,22.0,61,0.00,,,0.00,Wunderground v.1.15,2013-04-03 13:29:00,
2013-04-03 08:34:00,34.7,22.2,30.44,North,5,0.0,22.0,60,0.00,,,0.00,Wunderground v.1.15,2013-04-03 13:34:00,
2013-04-03 08:39:00,35.1,21.4,30.45,North,5,0.0,22.0,57,0.00,,,0.00,Wunderground v.1.15,2013-04-03 13:39:00,
2013-04-03 08:44:00,35.5,20.0,30.45,North,5,0.0,22.0,53,0.00,,,0.00,Wunderground v.1.15,2013-04-03 13:44:00,
2013-04-03 08:50:00,36.1,19.2,30.45,North,5,0.0,22.0,50,0.00,,,0.00,Wunderground v.1.15,2013-04-03 13:50:00,
2013-04-03 08:55:00,36.2,19.3,30.45,North,5,0.0,22.0,50,0.00,,,0.00,Wunderground v.1.15,2013-04-03 13:55:00,
2013-04-03 09:00:00,35.8,19.0,30.46,North,5,0.0,22.0,50,0.00,,,0.00,Wunderground v.1.15,2013-04-03 14:00:00,
2013-04-03 09:05:00,35.9,19.0,30.46,North,5,0.0,22.0,50,0.00,,,0.00,Wunderground v.1.15,2013-04-03 14:05:00,
2013-04-03 09:10:00,36.6,19.7,30.45,North,5,0.0,22.0,50,0.00,,,0.00,Wunderground v.1.15,2013-04-03 14:10:00,
2013-04-03 09:15:00,36.6,18.2,30.45,North,5,1.0,22.0,47,0.00,,,0.00,Wunderground v.1.15,2013-04-03 14:15:00,
2013-04-03 09:21:00,36.5,17.7,30.45,North,5,1.0,22.0,46,0.00,,,0.00,Wunderground v.1.15,2013-04-03 14:21:00,
2013-04-03 09:26:00,36.5,18.2,30.45,NNW,338,2.0,22.0,47,0.00,,,0.00,Wunderground v.1.15,2013-04-03 14:26:00,
2013-04-03 09:31:00,36.6,18.2,30.46,North,350,5.0,22.0,47,0.00,,,0.00,Wunderground v.1.15,2013-04-03 14:31:00,
2013-04-03 09:36:00,36.5,17.7,30.46,NNE,31,5.0,22.0,46,0.00,,,0.00,Wunderground v.1.15,2013-04-03 14:36:00,
2013-04-03 09:42:00,36.6,18.2,30.46,NE,47,4.0,22.0,47,0.00,,,0.00,Wunderground v.1.15,2013-04-03 14:42:00,
2013-04-03 09:48:00,36.5,17.1,30.47,NW,321,3.0,22.0,45,0.00,,,0.00,Wunderground v.1.15,2013-04-03 14:48:00,
2013-04-03 09:53:00,36.7,18.3,30.46,NW,321,2.0,22.0,47,0.00,,,0.00,Wunderground v.1.15,2013-04-03 14:53:00,
2013-04-03 09:58:00,37.1,18.2,30.46,NNW,347,2.0,22.0,46,0.00,,,0.00,Wunderground v.1.15,2013-04-03 14:58:00,
2013-04-03 10:03:00,37.6,18.7,30.46,North,355,4.0,22.0,46,0.00,,,0.00,Wunderground v.1.15,2013-04-03 15:03:00,
2013-04-03 10:09:00,37.4,18.0,30.46,North,5,5.0,22.0,45,0.00,,,0.00,Wunderground v.1.15,2013-04-03 15:09:00,
2013-04-03 10:15:00,37.6,18.2,30.47,North,350,5.0,22.0,45,0.00,,,0.00,Wunderground v.1.15,2013-04-03 15:15:00,
2013-04-03 10:20:00,38.0,18.5,30.46,NNW,328,4.0,4.0,45,0.00,,,0.00,Wunderground v.1.15,2013-04-03 15:20:00,
2013-04-03 10:25:00,38.2,18.7,30.46,North,360,6.0,22.0,45,0.00,,,0.00,Wunderground v.1.15,2013-04-03 15:25:00,
2013-04-03 10:31:00,38.0,16.9,30.46,North,355,5.0,22.0,42,0.00,,,0.00,Wunderground v.1.15,2013-04-03 15:31:00,
2013-04-03 10:36:00,38.4,17.8,30.45,NNW,338,2.0,22.0,43,0.00,,,0.00,Wunderground v.1.15,2013-04-03 15:36:00,
2013-04-03 10:42:00,38.6,16.9,30.45,NNW,348,5.0,22.0,41,0.00,,,0.00,Wunderground v.1.15,2013-04-03 15:42:00,
2013-04-03 10:47:00,38.5,17.9,30.45,NNW,348,6.0,22.0,43,0.00,,,0.00,Wunderground v.1.15,2013-04-03 15:47:00,
2013-04-03 10:52:00,38.6,18.0,30.45,NNW,330,5.0,22.0,43,0.00,,,0.00,Wunderground v.1.15,2013-04-03 15:52:00,
2013-04-03 10:57:00,38.5,18.4,30.45,North,5,9.0,22.0,44,0.00,,,0.00,Wunderground v.1.15,2013-04-03 15:57:00,
2013-04-03 11:02:00,38.6,19.1,30.45,NW,317,9.0,22.0,45,0.00,,,0.00,Wunderground v.1.15,2013-04-03 16:02:00,
2013-04-03 11:08:00,38.8,18.7,30.45,NNW,346,8.0,22.0,44,0.00,,,0.00,Wunderground v.1.15,2013-04-03 16:08:00,
2013-04-03 11:13:00,38.9,17.7,30.45,NNW,329,7.0,22.0,42,0.00,,,0.00,Wunderground v.1.15,2013-04-03 16:13:00,
2013-04-03 11:18:00,39.1,18.5,30.45,NNE,24,7.0,22.0,43,0.00,,,0.00,Wunderground v.1.15,2013-04-03 16:18:00,
2013-04-03 11:23:00,38.7,18.1,30.45,North,5,9.0,22.0,43,0.00,,,0.00,Wunderground v.1.15,2013-04-03 16:23:00,
2013-04-03 11:29:00,38.7,18.1,30.45,North,5,10.0,22.0,43,0.00,,,0.00,Wunderground v.1.15,2013-04-03 16:29:00,
2013-04-03 11:34:00,38.9,18.8,30.45,NNE,25,8.0,22.0,44,0.00,,,0.00,Wunderground v.1.15,2013-04-03 16:34:00,
2013-04-03 11:39:00,39.3,18.1,30.45,North,355,9.0,22.0,42,0.00,,,0.00,Wunderground v.1.15,2013-04-03 16:39:00,
2013-04-03 11:45:00,39.1,19.0,30.44,NNW,341,10.0,22.0,44,0.00,,,0.00,Wunderground v.1.15,2013-04-03 16:45:00,
2013-04-03 11:51:00,39.4,18.2,30.44,North,355,8.0,22.0,42,0.00,,,0.00,Wunderground v.1.15,2013-04-03 16:51:00,
2013-04-03 11:56:00,39.9,20.3,30.44,NNW,331,10.0,22.0,45,0.00,,,0.00,Wunderground v.1.15,2013-04-03 16:56:00,
2013-04-03 12:02:00,40.2,19.5,30.45,North,5,10.0,22.0,43,0.00,,,0.00,Wunderground v.1.15,2013-04-03 17:02:00,
2013-04-03 12:07:00,39.7,18.5,30.44,NNE,29,11.0,22.0,42,0.00,,,0.00,Wunderground v.1.15,2013-04-03 17:07:00,
2013-04-03 12:12:00,39.9,18.6,30.44,North,360,11.0,22.0,42,0.00,,,0.00,Wunderground v.1.15,2013-04-03 17:12:00,
2013-04-03 12:18:00,40.2,18.9,30.44,North,5,9.0,22.0,42,0.00,,,0.00,Wunderground v.1.15,2013-04-03 17:18:00,
2013-04-03 12:23:00,40.2,19.5,30.45,NW,325,9.0,22.0,43,0.00,,,0.00,Wunderground v.1.15,2013-04-03 17:23:00,
2013-04-03 12:29:00,40.6,19.3,30.44,NNE,30,9.0,22.0,42,0.00,,,0.00,Wunderground v.1.15,2013-04-03 17:29:00,
2013-04-03 12:34:00,40.5,20.3,30.44,NNW,336,8.0,22.0,44,0.00,,,0.00,Wunderground v.1.15,2013-04-03 17:34:00,
2013-04-03 12:40:00,41.3,20.5,30.44,NNW,339,9.0,22.0,43,0.00,,,0.00,Wunderground v.1.15,2013-04-03 17:40:00,
2013-04-03 12:45:00,41.2,19.8,30.44,North,360,8.0,22.0,42,0.00,,,0.00,Wunderground v.1.15,2013-04-03 17:45:00,
2013-04-03 12:51:00,41.4,20.0,30.43,North,360,9.0,22.0,42,0.00,,,0.00,Wunderground v.1.15,2013-04-03 17:51:00,
2013-04-03 12:57:00,40.7,18.8,30.43,NNE,16,12.0,22.0,41,0.00,,,0.00,Wunderground v.1.15,2013-04-03 17:57:00,
2013-04-03 13:02:00,41.2,21.4,30.43,NE,37,10.0,22.0,45,0.00,,,0.00,Wunderground v.1.15,2013-04-03 18:02:00,
2013-04-03 13:08:00,41.6,22.3,30.42,North,5,8.0,22.0,46,0.00,,,0.00,Wunderground v.1.15,2013-04-03 18:08:00,
2013-04-03 13:14:00,41.7,20.8,30.42,North,5,11.0,22.0,43,0.00,,,0.00,Wunderground v.1.15,2013-04-03 18:14:00,
2013-04-03 13:19:00,41.1,19.7,30.42,North,360,12.0,22.0,42,0.00,,,0.00,Wunderground v.1.15,2013-04-03 18:19:00,
2013-04-03 13:24:00,41.4,20.5,30.41,North,5,12.0,22.0,43,0.00,,,0.00,Wunderground v.1.15,2013-04-03 18:24:00,
2013-04-03 13:29:00,42.0,22.7,30.41,NNE,12,13.0,22.0,46,0.00,,,0.00,Wunderground v.1.15,2013-04-03 18:29:00,
2013-04-03 13:35:00,41.7,20.8,30.40,NNE,24,14.0,22.0,43,0.00,,,0.00,Wunderground v.1.15,2013-04-03 18:35:00,
2013-04-03 13:42:00,42.4,22.0,30.40,NNE,12,9.0,22.0,44,0.00,,,0.00,Wunderground v.1.15,2013-04-03 18:42:00,
2013-04-03 13:47:00,43.0,23.6,30.40,North,355,9.0,22.0,46,0.00,,,0.00,Wunderground v.1.15,2013-04-03 18:47:00,
2013-04-03 13:53:00,42.9,22.5,30.40,NNE,14,12.0,22.0,44,0.00,,,0.00,Wunderground v.1.15,2013-04-03 18:53:00,
2013-04-03 13:58:00,42.6,20.5,30.40,NNE,17,13.0,22.0,41,0.00,,,0.00,Wunderground v.1.15,2013-04-03 18:58:00,
2013-04-03 14:03:00,42.5,21.0,30.40,NE,51,11.0,22.0,42,0.00,,,0.00,Wunderground v.1.15,2013-04-03 19:03:00,
2013-04-03 14:09:00,42.5,21.5,30.39,North,355,10.0,22.0,43,0.00,,,0.00,Wunderground v.1.15,2013-04-03 19:09:00,
2013-04-03 14:14:00,43.3,22.8,30.39,NNE,15,11.0,22.0,44,0.00,,,0.00,Wunderground v.1.15,2013-04-03 19:14:00,
2013-04-03 14:20:00,42.7,21.7,30.39,NE,36,12.0,12.0,43,0.00,,,0.00,Wunderground v.1.15,2013-04-03 19:20:00,
2013-04-03 14:26:00,43.1,21.0,30.39,NE,36,9.0,22.0,41,0.00,,,0.00,Wunderground v.1.15,2013-04-03 19:26:00,
2013-04-03 14:31:00,43.9,19.9,30.39,North,5,9.0,22.0,38,0.00,,,0.00,Wunderground v.1.15,2013-04-03 19:31:00,
2013-04-03 14:36:00,44.1,21.9,30.39,NNE,16,9.0,22.0,41,0.00,,,0.00,Wunderground v.1.15,2013-04-03 19:36:00,
2013-04-03 14:42:00,43.7,20.9,30.39,NNE,27,11.0,22.0,40,0.00,,,0.00,Wunderground v.1.15,2013-04-03 19:42:00,
2013-04-03 14:47:00,43.3,20.0,30.39,NE,55,11.0,22.0,39,0.00,,,0.00,Wunderground v.1.15,2013-04-03 19:47:00,
2013-04-03 14:53:00,43.6,21.4,30.39,ENE,74,10.0,22.0,41,0.00,,,0.00,Wunderground v.1.15,2013-04-03 19:53:00,
2013-04-03 14:59:00,43.9,21.1,30.39,NE,35,10.0,22.0,40,0.00,,,0.00,Wunderground v.1.15,2013-04-03 19:59:00,
2013-04-03 15:04:00,43.6,20.2,30.39,NE,36,10.0,22.0,39,0.00,,,0.00,Wunderground v.1.15,2013-04-03 20:04:00,
2013-04-03 15:10:00,43.6,20.8,30.39,NE,55,10.0,22.0,40,0.00,,,0.00,Wunderground v.1.15,2013-04-03 20:10:00,
2013-04-03 15:16:00,43.7,20.9,30.39,NNE,31,10.0,22.0,40,0.00,,,0.00,Wunderground v.1.15,2013-04-03 20:16:00,
2013-04-03 15:22:00,44.0,21.2,30.39,ENE,77,9.0,22.0,40,0.00,,,0.00,Wunderground v.1.15,2013-04-03 20:22:00,
2013-04-03 15:27:00,44.9,22.6,30.39,NNE,15,7.0,22.0,41,0.00,,,0.00,Wunderground v.1.15,2013-04-03 20:27:00,
2013-04-03 15:32:00,44.6,21.1,30.39,ENE,57,10.0,22.0,39,0.00,,,0.00,Wunderground v.1.15,2013-04-03 20:32:00,
2013-04-03 15:38:00,43.9,19.9,30.39,ENE,74,9.0,22.0,38,0.00,,,0.00,Wunderground v.1.15,2013-04-03 20:38:00,
2013-04-03 15:43:00,44.5,21.6,30.39,NNE,17,7.0,22.0,40,0.00,,,0.00,Wunderground v.1.15,2013-04-03 20:43:00,
2013-04-03 15:48:00,44.7,21.8,30.39,North,5,9.0,22.0,40,0.00,,,0.00,Wunderground v.1.15,2013-04-03 20:48:00,
2013-04-03 15:53:00,44.7,21.2,30.39,NE,50,9.0,22.0,39,0.00,,,0.00,Wunderground v.1.15,2013-04-03 20:53:00,
2013-04-03 15:58:00,44.4,20.3,30.39,NE,34,9.0,22.0,38,0.00,,,0.00,Wunderground v.1.15,2013-04-03 20:58:00,
2013-04-03 16:03:00,44.3,20.9,30.39,NE,38,10.0,22.0,39,0.00,,,0.00,Wunderground v.1.15,2013-04-03 21:03:00,
2013-04-03 16:09:00,45.0,21.5,30.39,North,355,10.0,22.0,39,0.00,,,0.00,Wunderground v.1.15,2013-04-03 21:09:00,
2013-04-03 16:14:00,44.9,21.4,30.39,NNE,30,9.0,22.0,39,0.00,,,0.00,Wunderground v.1.15,2013-04-03 21:14:00,
2013-04-03 16:19:00,45.1,21.6,30.39,NE,53,8.0,22.0,39,0.00,,,0.00,Wunderground v.1.15,2013-04-03 21:19:00,
2013-04-03 16:24:00,44.8,20.7,30.39,NNE,13,8.0,22.0,38,0.00,,,0.00,Wunderground v.1.15,2013-04-03 21:24:00,
2013-04-03 16:29:00,45.0,20.3,30.39,East,99,5.0,22.0,37,0.00,,,0.00,Wunderground v.1.15,2013-04-03 21:29:00,
2013-04-03 16:43:00,45.1,21.0,30.39,ENE,57,8.0,22.0,38,0.00,,,0.00,Wunderground v.1.15,2013-04-03 21:43:00,
2013-04-03 16:48:00,44.7,20.6,30.39,ENE,63,8.0,22.0,38,0.00,,,0.00,Wunderground v.1.15,2013-04-03 21:48:00,
2013-04-03 16:53:00,44.6,19.9,30.38,ENE,72,7.0,22.0,37,0.00,,,0.00,Wunderground v.1.15,2013-04-03 21:53:00,
2013-04-03 16:58:00,44.8,20.7,30.38,East,85,6.0,22.0,38,0.00,,,0.00,Wunderground v.1.15,2013-04-03 21:58:00,
2013-04-03 17:03:00,45.1,20.3,30.38,NE,50,3.0,22.0,37,0.00,,,0.00,Wunderground v.1.15,2013-04-03 22:03:00,
2013-04-03 17:08:00,45.3,21.2,30.38,East,85,3.0,22.0,38,0.00,,,0.00,Wunderground v.1.15,2013-04-03 22:08:00,
2013-04-03 17:13:00,45.0,20.3,30.38,ENE,78,5.0,22.0,37,0.00,,,0.00,Wunderground v.1.15,2013-04-03 22:13:00,
2013-04-03 17:18:00,45.1,21.6,30.38,ESE,115,5.0,22.0,39,0.00,,,0.00,Wunderground v.1.15,2013-04-03 22:18:00,
2013-04-03 17:23:00,45.0,21.5,30.38,ESE,113,5.0,22.0,39,0.00,,,0.00,Wunderground v.1.15,2013-04-03 22:23:00,
2013-04-03 17:29:00,45.4,21.2,30.38,East,84,3.0,22.0,38,0.00,,,0.00,Wunderground v.1.15,2013-04-03 22:29:00,
2013-04-03 17:34:00,45.2,20.4,30.38,ENE,67,3.0,22.0,37,0.00,,,0.00,Wunderground v.1.15,2013-04-03 22:34:00,
2013-04-03 17:40:00,45.0,20.9,30.38,ENE,59,4.0,22.0,38,0.00,,,0.00,Wunderground v.1.15,2013-04-03 22:40:00,
2013-04-03 17:46:00,44.9,22.0,30.37,ENE,73,8.0,22.0,40,0.00,,,0.00,Wunderground v.1.15,2013-04-03 22:46:00,
2013-04-03 17:51:00,44.7,20.6,30.37,ENE,77,9.0,22.0,38,0.00,,,0.00,Wunderground v.1.15,2013-04-03 22:51:00,
2013-04-03 17:56:00,44.6,21.1,30.38,East,92,6.0,22.0,39,0.00,,,0.00,Wunderground v.1.15,2013-04-03 22:56:00,
2013-04-03 18:01:00,44.7,20.6,30.38,ENE,65,4.0,22.0,38,0.00,,,0.00,Wunderground v.1.15,2013-04-03 23:01:00,
2013-04-03 18:07:00,44.7,20.6,30.38,East,79,4.0,22.0,38,0.00,,,0.00,Wunderground v.1.15,2013-04-03 23:07:00,
2013-04-03 18:12:00,44.6,21.1,30.38,ENE,77,5.0,22.0,39,0.00,,,0.00,Wunderground v.1.15,2013-04-03 23:12:00,
2013-04-03 18:18:00,44.7,22.4,30.38,ENE,78,4.0,22.0,41,0.00,,,0.00,Wunderground v.1.15,2013-04-03 23:18:00,
2013-04-03 18:23:00,44.7,21.2,30.37,ENE,74,3.0,22.0,39,0.00,,,0.00,Wunderground v.1.15,2013-04-03 23:23:00,
2013-04-03 18:28:00,44.6,21.7,30.37,ENE,72,5.0,22.0,40,0.00,,,0.00,Wunderground v.1.15,2013-04-03 23:28:00,
2013-04-03 18:33:00,44.5,21.6,30.37,East,88,5.0,22.0,40,0.00,,,0.00,Wunderground v.1.15,2013-04-03 23:33:00,
2013-04-03 18:38:00,44.5,21.0,30.37,East,88,4.0,22.0,39,0.00,,,0.00,Wunderground v.1.15,2013-04-03 23:38:00,
2013-04-03 18:44:00,44.4,21.0,30.37,ESE,104,2.0,22.0,39,0.00,,,0.00,Wunderground v.1.15,2013-04-03 23:44:00,
2013-04-03 18:49:00,44.3,21.5,30.37,ESE,107,1.0,22.0,40,0.00,,,0.00,Wunderground v.1.15,2013-04-03 23:49:00,
2013-04-03 18:54:00,44.1,21.3,30.37,East,101,1.0,22.0,40,0.00,,,0.00,Wunderground v.1.15,2013-04-03 23:54:00,
2013-04-03 19:04:00,43.7,21.5,30.37,ESE,111,1.0,22.0,41,0.00,,,0.00,Wunderground v.1.15,2013-04-04 00:04:00,
2013-04-03 19:09:00,43.5,21.9,30.37,ESE,103,1.0,22.0,42,0.00,,,0.00,Wunderground v.1.15,2013-04-04 00:09:00,
2013-04-03 19:14:00,43.3,21.7,30.37,ESE,103,1.0,22.0,42,0.00,,,0.00,Wunderground v.1.15,2013-04-04 00:14:00,
2013-04-03 19:19:00,43.2,21.6,30.37,ESE,105,1.0,22.0,42,0.00,,,0.00,Wunderground v.1.15,2013-04-04 00:19:00,
2013-04-03 19:25:00,42.9,21.9,30.36,ESE,105,1.0,22.0,43,0.00,,,0.00,Wunderground v.1.15,2013-04-04 00:25:00,
2013-04-03 19:30:00,42.6,22.2,30.36,ESE,105,1.0,22.0,44,0.00,,,0.00,Wunderground v.1.15,2013-04-04 00:30:00,
2013-04-03 19:36:00,42.3,21.9,30.36,ESE,105,1.0,22.0,44,0.00,,,0.00,Wunderground v.1.15,2013-04-04 00:36:00,
2013-04-03 19:42:00,42.1,22.8,30.36,ESE,105,1.0,22.0,46,0.00,,,0.00,Wunderground v.1.15,2013-04-04 00:42:00,
2013-04-03 19:47:00,42.0,21.6,30.36,ESE,105,1.0,22.0,44,0.00,,,0.00,Wunderground v.1.15,2013-04-04 00:47:00,
2013-04-03 19:52:00,42.1,22.3,30.36,ESE,105,1.0,22.0,45,0.00,,,0.00,Wunderground v.1.15,2013-04-04 00:52:00,
2013-04-03 19:58:00,41.9,22.1,30.36,ESE,105,0.0,22.0,45,0.00,,,0.00,Wunderground v.1.15,2013-04-04 00:58:00,
2013-04-03 20:03:00,41.9,22.1,30.36,ESE,105,0.0,22.0,45,0.00,,,0.00,Wunderground v.1.15,2013-04-04 01:03:00,
2013-04-03 20:09:00,41.7,21.9,30.36,ESE,105,1.0,22.0,45,0.00,,,0.00,Wunderground v.1.15,2013-04-04 01:09:00,
2013-04-03 20:14:00,41.3,22.6,30.36,ESE,102,1.0,22.0,47,0.00,,,0.00,Wunderground v.1.15,2013-04-04 01:14:00,
2013-04-03 20:20:00,40.2,21.6,30.35,East,84,1.0,22.0,47,0.00,,,0.00,Wunderground v.1.15,2013-04-04 01:20:00,
2013-04-03 20:26:00,39.2,21.6,30.35,East,84,1.0,22.0,49,0.00,,,0.00,Wunderground v.1.15,2013-04-04 01:26:00,
2013-04-03 20:31:00,39.2,21.6,30.35,East,82,1.0,22.0,49,0.00,,,0.00,Wunderground v.1.15,2013-04-04 01:31:00,
2013-04-03 20:37:00,38.6,22.5,30.35,ENE,69,1.0,22.0,52,0.00,,,0.00,Wunderground v.1.15,2013-04-04 01:37:00,
2013-04-03 20:42:00,37.4,22.7,30.35,NE,43,3.0,22.0,55,0.00,,,0.00,Wunderground v.1.15,2013-04-04 01:42:00,
2013-04-03 20:48:00,37.0,23.2,30.35,NE,43,6.0,22.0,57,0.00,,,0.00,Wunderground v.1.15,2013-04-04 01:48:00,
2013-04-03 20:53:00,37.1,22.8,30.35,NE,44,6.0,22.0,56,0.00,,,0.00,Wunderground v.1.15,2013-04-04 01:53:00,
2013-04-03 20:58:00,37.6,22.9,30.34,NE,44,7.0,22.0,55,0.00,,,0.00,Wunderground v.1.15,2013-04-04 01:58:00,
2013-04-03 21:03:00,37.1,23.3,30.35,NE,44,7.0,22.0,57,0.00,,,0.00,Wunderground v.1.15,2013-04-04 02:03:00,
2013-04-03 21:08:00,36.9,23.5,30.35,NE,44,7.0,22.0,58,0.00,,,0.00,Wunderground v.1.15,2013-04-04 02:08:00,
2013-04-03 21:14:00,36.8,23.4,30.35,NE,44,6.0,22.0,58,0.00,,,0.00,Wunderground v.1.15,2013-04-04 02:14:00,
2013-04-03 21:19:00,37.0,23.2,30.34,NE,44,6.0,22.0,57,0.00,,,0.00,Wunderground v.1.15,2013-04-04 02:19:00,
2013-04-03 21:24:00,36.8,23.0,30.35,NE,44,6.0,22.0,57,0.00,,,0.00,Wunderground v.1.15,2013-04-04 02:24:00,
2013-04-03 21:29:00,36.6,23.2,30.35,NE,44,6.0,22.0,58,0.00,,,0.00,Wunderground v.1.15,2013-04-04 02:29:00,
2013-04-03 21:34:00,36.1,23.1,30.35,NE,44,5.0,22.0,59,0.00,,,0.00,Wunderground v.1.15,2013-04-04 02:34:00,
2013-04-03 21:40:00,36.1,22.7,30.35,NE,44,5.0,5.0,58,0.00,,,0.00,Wunderground v.1.15,2013-04-04 02:40:00,
2013-04-03 21:45:00,36.2,22.4,30.35,NE,44,4.0,22.0,57,0.00,,,0.00,Wunderground v.1.15,2013-04-04 02:45:00,
2013-04-03 21:50:00,36.6,22.4,30.36,NE,44,1.0,1.0,56,0.00,,,0.00,Wunderground v.1.15,2013-04-04 02:50:00,
2013-04-03 21:56:00,37.2,22.5,30.36,NE,44,0.0,22.0,55,0.00,,,0.00,Wunderground v.1.15,2013-04-04 02:56:00,
2013-04-03 22:01:00,37.3,22.2,30.36,NE,44,0.0,22.0,54,0.00,,,0.00,Wunderground v.1.15,2013-04-04 03:01:00,
2013-04-03 22:07:00,37.3,22.6,30.36,NE,44,0.0,22.0,55,0.00,,,0.00,Wunderground v.1.15,2013-04-04 03:07:00,
2013-04-03 22:13:00,37.3,21.7,30.36,NE,44,0.0,22.0,53,0.00,,,0.00,Wunderground v.1.15,2013-04-04 03:13:00,
2013-04-03 22:18:00,37.3,21.7,30.36,NE,44,0.0,22.0,53,0.00,,,0.00,Wunderground v.1.15,2013-04-04 03:18:00,
2013-04-03 22:24:00,37.3,22.2,30.37,NE,44,0.0,22.0,54,0.00,,,0.00,Wunderground v.1.15,2013-04-04 03:24:00,
2013-04-03 22:29:00,37.1,22.4,30.37,NE,44,0.0,22.0,55,0.00,,,0.00,Wunderground v.1.15,2013-04-04 03:29:00,
2013-04-03 22:35:00,37.1,22.0,30.36,NE,44,0.0,22.0,54,0.00,,,0.00,Wunderground v.1.15,2013-04-04 03:35:00,
2013-04-03 22:41:00,37.2,22.1,30.37,NE,44,0.0,22.0,54,0.00,,,0.00,Wunderground v.1.15,2013-04-04 03:41:00,
2013-04-03 22:46:00,37.2,21.6,30.37,NE,44,0.0,22.0,53,0.00,,,0.00,Wunderground v.1.15,2013-04-04 03:46:00,
2013-04-03 22:51:00,37.0,21.9,30.37,NE,44,0.0,22.0,54,0.00,,,0.00,Wunderground v.1.15,2013-04-04 03:51:00,
2013-04-03 22:57:00,36.9,21.8,30.37,NE,44,0.0,22.0,54,0.00,,,0.00,Wunderground v.1.15,2013-04-04 03:57:00,
2013-04-03 23:00:00,36.9,21.8,30.37,NE,44,0.0,22.0,54,0.00,,,0.00,Wunderground v.1.15,2013-04-04 04:00:00,
2013-04-03 23:01:00,36.9,21.8,30.37,NE,44,0.0,22.0,54,0.00,,,0.00,Wunderground v.1.15,2013-04-04 04:01:00,
2013-04-03 23:02:00,36.9,21.8,30.37,NE,44,0.0,22.0,54,0.00,,,0.00,Wunderground v.1.15,2013-04-04 04:02:00,
2013-04-03 23:06:00,37.0,21.9,30.37,NE,44,0.0,22.0,54,0.00,,,0.00,Wunderground v.1.15,2013-04-04 04:06:00,
2013-04-03 23:11:00,37.1,21.5,30.37,NE,44,0.0,22.0,53,0.00,,,0.00,Wunderground v.1.15,2013-04-04 04:11:00,
2013-04-03 23:17:00,37.3,21.3,30.37,NE,44,0.0,22.0,52,0.00,,,0.00,Wunderground v.1.15,2013-04-04 04:17:00,
2013-04-03 23:22:00,37.4,21.4,30.37,NE,44,0.0,22.0,52,0.00,,,0.00,Wunderground v.1.15,2013-04-04 04:22:00,
2013-04-03 23:28:00,37.6,21.5,30.37,NE,44,0.0,22.0,52,0.00,,,0.00,Wunderground v.1.15,2013-04-04 04:28:00,
2013-04-03 23:33:00,37.4,20.9,30.36,NE,44,0.0,22.0,51,0.00,,,0.00,Wunderground v.1.15,2013-04-04 04:33:00,
2013-04-03 23:39:00,37.2,21.2,30.36,NE,46,0.0,22.0,52,0.00,,,0.00,Wunderground v.1.15,2013-04-04 04:39:00,
2013-04-03 23:45:00,37.0,21.0,30.36,ENE,57,0.0,22.0,52,0.00,,,0.00,Wunderground v.1.15,2013-04-04 04:45:00,
2013-04-03 23:50:00,36.8,20.3,30.36,East,98,0.0,22.0,51,0.00,,,0.00,Wunderground v.1.15,2013-04-04 04:50:00,
2013-04-03 23:56:00,36.4,20.9,30.36,East,98,0.0,22.0,53,0.00,,,0.00,Wunderground v.1.15,2013-04-04 04:56:00,